createdAt,value
2017-12-15T00:00:40.777Z,89.30
2017-12-15T00:03:07.202Z,87.90
2017-12-15T00:05:33.500Z,87.90
2017-12-15T00:08:00.533Z,88.80
2017-12-15T00:10:26.829Z,88.70
2017-12-15T00:12:53.129Z,89.30
2017-12-15T00:15:20.114Z,89.50
2017-12-15T00:17:46.386Z,89.40
2017-12-15T00:20:12.633Z,89.40
2017-12-15T00:22:38.894Z,88.10
2017-12-15T00:25:05.145Z,89.00
2017-12-15T00:27:32.157Z,88.10
2017-12-15T00:29:59.305Z,89.10
2017-12-15T00:32:25.613Z,89.00
2017-12-15T00:34:51.895Z,89.40
2017-12-15T00:37:18.141Z,89.50
2017-12-15T00:39:44.401Z,88.70
2017-12-15T00:42:10.746Z,90.20
2017-12-15T00:44:36.991Z,89.50
2017-12-15T00:47:03.384Z,89.00
2017-12-15T00:49:30.375Z,88.40
2017-12-15T00:51:56.661Z,88.30
2017-12-15T00:54:22.905Z,87.40
2017-12-15T00:56:49.189Z,88.90
2017-12-15T00:59:16.205Z,89.10
2017-12-15T01:01:42.470Z,89.00
2017-12-15T01:04:08.778Z,88.10
2017-12-15T01:06:35.073Z,88.00
2017-12-15T01:09:01.326Z,87.90
2017-12-15T01:11:27.633Z,86.90
2017-12-15T01:13:53.902Z,87.20
2017-12-15T01:16:20.917Z,88.40
2017-12-15T01:18:47.337Z,88.30
2017-12-15T01:21:13.566Z,87.90
2017-12-15T01:23:39.805Z,88.70
2017-12-15T01:26:06.197Z,89.20
2017-12-15T01:28:32.492Z,88.60
2017-12-15T01:30:58.773Z,88.40
2017-12-15T01:33:25.079Z,89.20
2017-12-15T01:35:51.342Z,88.50
2017-12-15T01:38:17.577Z,88.50
2017-12-15T01:40:44.645Z,88.30
2017-12-15T01:43:11.670Z,88.10
2017-12-15T01:45:38.677Z,89.10
2017-12-15T01:48:04.938Z,89.00
2017-12-15T01:50:31.221Z,89.20
2017-12-15T01:52:58.226Z,88.90
2017-12-15T01:55:24.509Z,89.10
2017-12-15T01:57:50.777Z,88.30
2017-12-15T02:00:17.008Z,89.00
2017-12-15T02:02:43.280Z,87.50
2017-12-15T02:05:09.574Z,87.70
2017-12-15T02:07:36.581Z,86.20
2017-12-15T02:10:02.829Z,85.80
2017-12-15T02:12:29.077Z,86.80
2017-12-15T02:14:55.332Z,85.70
2017-12-15T02:17:21.600Z,87.80
2017-12-15T02:19:47.921Z,87.60
2017-12-15T02:22:14.166Z,86.90
2017-12-15T02:24:40.427Z,86.50
2017-12-15T02:27:07.428Z,85.80
2017-12-15T02:29:33.656Z,85.80
2017-12-15T02:31:59.926Z,86.70
2017-12-15T02:34:26.186Z,86.60
2017-12-15T02:36:52.447Z,85.40
2017-12-15T02:39:18.688Z,86.10
2017-12-15T02:41:45.694Z,85.40
2017-12-15T02:44:11.952Z,85.30
2017-12-15T02:46:38.223Z,86.10
2017-12-15T02:49:04.463Z,87.00
2017-12-15T02:51:30.705Z,86.00
2017-12-15T02:53:56.930Z,86.20
2017-12-15T02:56:23.214Z,85.50
2017-12-15T02:58:49.478Z,85.50
2017-12-15T03:01:15.724Z,86.30
2017-12-15T03:03:42.054Z,86.50
2017-12-15T03:06:09.071Z,86.20
2017-12-15T03:08:35.329Z,85.50
2017-12-15T03:11:01.594Z,85.30
2017-12-15T03:13:28.577Z,86.20
2017-12-15T03:15:54.841Z,86.10
2017-12-15T03:18:21.097Z,86.60
2017-12-15T03:20:47.818Z,85.90
2017-12-15T03:23:14.555Z,85.70
2017-12-15T03:25:40.844Z,86.80
2017-12-15T03:28:07.107Z,86.10
2017-12-15T03:30:34.163Z,85.90
2017-12-15T03:33:00.483Z,85.60
2017-12-15T03:35:27.534Z,86.20
2017-12-15T03:37:53.781Z,86.10
2017-12-15T03:40:20.793Z,85.20
2017-12-15T03:42:47.050Z,85.20
2017-12-15T03:45:13.354Z,85.90
2017-12-15T03:47:40.342Z,84.10
2017-12-15T03:50:06.597Z,84.00
2017-12-15T03:52:32.850Z,84.00
2017-12-15T03:54:59.290Z,84.90
2017-12-15T03:57:25.552Z,85.90
2017-12-15T03:59:52.522Z,84.90
2017-12-15T04:02:18.774Z,84.80
2017-12-15T04:04:45.013Z,85.70
2017-12-15T04:07:11.310Z,84.50
2017-12-15T04:09:37.542Z,84.60
2017-12-15T04:12:03.794Z,84.30
2017-12-15T04:14:30.043Z,85.30
2017-12-15T04:16:56.288Z,86.20
2017-12-15T04:19:22.538Z,85.50
2017-12-15T04:21:48.788Z,85.20
2017-12-15T04:24:15.041Z,84.30
2017-12-15T04:26:41.329Z,84.10
2017-12-15T04:29:07.585Z,84.70
2017-12-15T04:31:33.846Z,84.10
2017-12-15T04:34:00.845Z,83.90
2017-12-15T04:36:27.158Z,83.90
2017-12-15T04:38:53.418Z,83.90
2017-12-15T04:41:20.437Z,83.30
2017-12-15T04:43:46.720Z,83.20
2017-12-15T04:46:12.993Z,84.10
2017-12-15T04:48:39.261Z,83.40
2017-12-15T04:51:06.289Z,83.50
2017-12-15T04:53:32.547Z,82.90
2017-12-15T04:55:58.830Z,83.20
2017-12-15T04:58:25.067Z,83.20
2017-12-15T05:00:51.409Z,83.00
2017-12-15T05:03:17.644Z,83.30
2017-12-15T05:05:44.672Z,83.60
2017-12-15T05:08:10.939Z,82.90
2017-12-15T05:10:37.173Z,84.00
2017-12-15T05:13:04.179Z,83.50
2017-12-15T05:15:30.434Z,83.40
2017-12-15T05:17:56.686Z,82.50
2017-12-15T05:20:22.982Z,82.30
2017-12-15T05:22:49.270Z,83.10
2017-12-15T05:25:15.587Z,81.10
2017-12-15T05:27:41.846Z,82.70
2017-12-15T05:30:08.122Z,83.20
2017-12-15T05:32:34.402Z,81.30
2017-12-15T05:35:00.681Z,80.70
2017-12-15T05:37:27.012Z,80.00
2017-12-15T05:39:53.288Z,81.80
2017-12-15T05:42:19.561Z,81.50
2017-12-15T05:44:45.843Z,81.30
2017-12-15T05:47:12.108Z,81.00
2017-12-15T05:49:38.396Z,80.60
2017-12-15T05:52:04.692Z,80.40
2017-12-15T05:54:31.902Z,80.40
2017-12-15T05:56:58.212Z,80.40
2017-12-15T05:59:25.363Z,80.40
2017-12-15T06:01:52.375Z,80.40
2017-12-15T06:04:18.658Z,80.40
2017-12-15T06:06:44.951Z,80.30
2017-12-15T06:09:11.984Z,80.10
2017-12-15T06:11:38.282Z,80.10
2017-12-15T06:14:04.633Z,79.60
2017-12-15T06:16:30.948Z,79.40
2017-12-15T06:18:57.215Z,80.10
2017-12-15T06:21:23.462Z,79.50
2017-12-15T06:23:50.488Z,79.80
2017-12-15T06:26:18.222Z,80.40
2017-12-15T06:28:44.501Z,80.40
2017-12-15T06:31:10.775Z,80.00
2017-12-15T06:33:37.069Z,79.90
2017-12-15T06:36:03.358Z,80.50
2017-12-15T06:38:29.656Z,80.50
2017-12-15T06:40:55.945Z,79.90
2017-12-15T06:43:23.022Z,80.60
2017-12-15T06:45:49.308Z,80.60
2017-12-15T06:48:16.332Z,80.70
2017-12-15T06:50:42.606Z,80.60
2017-12-15T06:53:08.869Z,79.80
2017-12-15T06:55:35.085Z,79.10
2017-12-15T06:58:01.351Z,79.00
2017-12-15T07:00:28.345Z,79.00
2017-12-15T07:02:54.574Z,79.00
2017-12-15T07:05:26.873Z,78.60
2017-12-15T07:07:53.112Z,79.30
2017-12-15T07:10:19.407Z,79.50
2017-12-15T07:12:45.657Z,78.40
2017-12-15T07:15:11.922Z,79.00
2017-12-15T07:17:38.915Z,79.00
2017-12-15T07:20:05.181Z,78.80
2017-12-15T07:22:32.185Z,79.10
2017-12-15T07:24:59.245Z,78.70
2017-12-15T07:27:25.538Z,78.40
2017-12-15T07:29:51.779Z,79.40
2017-12-15T07:32:17.998Z,79.70
2017-12-15T07:34:44.259Z,79.50
2017-12-15T07:37:10.503Z,78.40
2017-12-15T07:39:36.728Z,79.00
2017-12-15T07:42:02.966Z,78.60
2017-12-15T07:44:29.985Z,79.40
2017-12-15T07:46:56.257Z,79.30
2017-12-15T07:49:23.329Z,79.20
2017-12-15T07:54:56.161Z,78.30
2017-12-15T07:57:22.239Z,78.80
2017-12-15T07:59:49.068Z,78.90
2017-12-15T08:02:15.104Z,78.90
2017-12-15T08:04:41.174Z,79.70
2017-12-15T08:07:07.253Z,78.70
2017-12-15T08:09:33.305Z,80.60
2017-12-15T08:11:59.374Z,81.10
2017-12-15T08:14:26.206Z,81.30
2017-12-15T08:16:52.276Z,81.10
2017-12-15T08:19:19.102Z,80.70
2017-12-15T08:21:45.167Z,80.60
2017-12-15T08:24:12.021Z,81.90
2017-12-15T08:26:38.865Z,82.20
2017-12-15T08:29:05.725Z,80.80
2017-12-15T08:31:32.595Z,80.80
2017-12-15T08:33:58.668Z,80.80
2017-12-15T08:36:24.805Z,80.80
2017-12-15T08:38:50.898Z,80.10
2017-12-15T08:41:17.978Z,80.90
2017-12-15T08:43:44.033Z,79.10
2017-12-15T08:46:10.133Z,81.60
2017-12-15T08:48:36.938Z,79.30
2017-12-15T08:51:03.021Z,79.20
2017-12-15T08:53:29.845Z,79.10
2017-12-15T08:55:55.908Z,79.10
2017-12-15T08:58:22.820Z,79.00
2017-12-15T09:00:48.909Z,79.10
2017-12-15T09:03:15.716Z,77.40
2017-12-15T09:05:42.541Z,78.60
2017-12-15T09:08:08.651Z,78.60
2017-12-15T09:10:35.465Z,78.10
2017-12-15T09:13:01.761Z,78.00
2017-12-15T09:15:28.622Z,80.00
2017-12-15T09:17:54.764Z,80.00
2017-12-15T09:20:20.944Z,76.50
2017-12-15T09:22:47.061Z,79.00
2017-12-15T09:25:14.681Z,79.50
2017-12-15T09:27:40.747Z,79.50
2017-12-15T09:30:06.825Z,78.50
2017-12-15T09:32:33.001Z,79.10
2017-12-15T09:34:59.065Z,78.20
2017-12-15T09:37:27.497Z,77.40
2017-12-15T09:39:53.606Z,77.70
2017-12-15T09:42:19.683Z,77.50
2017-12-15T09:44:45.742Z,76.00
2017-12-15T09:47:11.802Z,76.30
2017-12-15T09:49:38.641Z,76.70
2017-12-15T09:52:05.458Z,77.00
2017-12-15T09:57:02.522Z,76.50
2017-12-15T09:59:28.572Z,75.50
2017-12-15T10:01:54.627Z,76.90
2017-12-15T10:04:20.707Z,75.60
2017-12-15T10:06:46.761Z,76.30
2017-12-15T10:09:12.815Z,76.80
2017-12-15T10:11:38.873Z,77.30
2017-12-15T10:14:09.461Z,76.30
2017-12-15T10:16:36.598Z,74.80
2017-12-15T10:19:02.648Z,74.70
2017-12-15T10:21:29.445Z,74.00
2017-12-15T10:23:55.493Z,74.30
2017-12-15T10:26:21.537Z,73.70
2017-12-15T10:28:47.616Z,75.30
2017-12-15T10:31:16.314Z,73.10
2017-12-15T10:33:43.149Z,72.10
2017-12-15T10:36:09.233Z,72.10
2017-12-15T10:38:35.285Z,70.50
2017-12-15T10:41:01.344Z,71.70
2017-12-15T10:43:28.183Z,70.20
2017-12-15T10:45:54.240Z,70.20
2017-12-15T10:48:21.054Z,71.30
2017-12-15T10:50:47.110Z,71.30
2017-12-15T10:53:13.726Z,72.20
2017-12-15T10:55:39.773Z,72.30
2017-12-15T10:58:05.834Z,68.50
2017-12-15T11:00:31.894Z,70.70
2017-12-15T11:02:57.962Z,71.00
2017-12-15T11:05:24.041Z,69.80
2017-12-15T11:07:50.101Z,71.30
2017-12-15T11:10:16.178Z,68.80
2017-12-15T11:12:44.899Z,68.70
2017-12-15T11:15:11.125Z,69.80
2017-12-15T11:17:37.410Z,72.50
2017-12-15T11:20:04.424Z,68.90
2017-12-15T11:22:30.792Z,68.80
2017-12-15T11:24:57.037Z,66.50
2017-12-15T11:27:23.294Z,67.10
2017-12-15T11:29:54.615Z,63.70
2017-12-15T11:32:20.874Z,65.70
2017-12-15T11:34:47.152Z,65.90
2017-12-15T11:37:14.290Z,65.40
2017-12-15T11:39:40.560Z,65.30
2017-12-15T11:42:06.797Z,63.70
2017-12-15T11:44:33.070Z,64.50
2017-12-15T11:47:00.065Z,66.50
2017-12-15T11:49:28.040Z,66.40
2017-12-15T11:51:54.385Z,65.10
2017-12-15T11:54:21.398Z,64.10
2017-12-15T11:56:47.661Z,64.10
2017-12-15T11:59:13.932Z,64.90
2017-12-15T12:01:40.954Z,65.10
2017-12-15T12:04:07.197Z,65.10
2017-12-15T12:06:33.508Z,65.30
2017-12-15T12:09:02.354Z,65.50
2017-12-15T12:11:28.605Z,64.60
2017-12-15T12:13:54.995Z,63.10
2017-12-15T12:16:21.254Z,63.40
2017-12-15T12:18:48.278Z,64.00
2017-12-15T12:21:14.670Z,63.70
2017-12-15T12:23:40.916Z,64.70
2017-12-15T12:26:10.055Z,64.20
2017-12-15T12:28:38.489Z,64.80
2017-12-15T12:31:04.766Z,65.10
2017-12-15T12:33:31.054Z,64.80
2017-12-15T12:35:57.385Z,66.00
2017-12-15T12:38:24.412Z,64.20
2017-12-15T12:40:50.715Z,64.10
2017-12-15T12:43:20.481Z,61.90
2017-12-15T12:45:46.540Z,63.00
2017-12-15T12:48:12.650Z,62.90
2017-12-15T12:50:39.630Z,65.60
2017-12-15T12:53:05.696Z,65.50
2017-12-15T12:55:31.921Z,63.00
2017-12-15T12:57:58.282Z,62.90
2017-12-15T13:00:24.560Z,63.00
2017-12-15T13:02:53.307Z,63.00
2017-12-15T13:05:20.309Z,63.80
2017-12-15T13:07:46.563Z,63.70
2017-12-15T13:10:12.825Z,62.70
2017-12-15T13:12:39.058Z,67.50
2017-12-15T13:15:05.351Z,65.90
2017-12-15T13:17:31.607Z,65.60
2017-12-15T13:19:57.852Z,64.30
2017-12-15T13:22:28.447Z,63.70
2017-12-15T13:24:54.743Z,64.30
2017-12-15T13:27:21.057Z,64.10
2017-12-15T13:29:47.342Z,64.50
2017-12-15T13:32:13.609Z,64.60
2017-12-15T13:34:39.900Z,64.30
2017-12-15T13:37:06.166Z,64.90
2017-12-15T13:39:32.456Z,65.80
2017-12-15T13:42:01.822Z,67.50
2017-12-15T13:44:28.119Z,67.70
2017-12-15T13:46:54.381Z,67.20
2017-12-15T13:49:20.672Z,68.90
2017-12-15T13:51:47.076Z,68.30
2017-12-15T13:54:14.348Z,67.40
2017-12-15T13:56:40.653Z,69.20
2017-12-15T13:59:10.518Z,69.70
2017-12-15T14:01:36.749Z,68.20
2017-12-15T14:04:03.761Z,70.50
2017-12-15T14:06:30.106Z,70.40
2017-12-15T14:08:56.618Z,70.60
2017-12-15T14:11:22.944Z,69.00
2017-12-15T14:16:20.514Z,68.30
2017-12-15T14:18:46.816Z,69.50
2017-12-15T14:21:13.098Z,70.20
2017-12-15T14:23:40.129Z,70.30
2017-12-15T14:26:06.369Z,70.40
2017-12-15T14:28:32.627Z,69.10
2017-12-15T14:30:58.900Z,70.70
2017-12-15T14:33:28.884Z,70.20
2017-12-15T14:35:55.293Z,69.00
2017-12-15T14:38:22.309Z,70.10
2017-12-15T14:40:48.775Z,70.00
2017-12-15T14:43:15.062Z,69.60
2017-12-15T14:45:41.317Z,70.30
2017-12-15T14:48:08.357Z,69.30
2017-12-15T14:50:38.192Z,69.30
2017-12-15T14:53:04.432Z,70.50
2017-12-15T14:55:30.729Z,69.80
2017-12-15T14:57:57.069Z,69.00
2017-12-15T15:00:23.395Z,70.50
2017-12-15T15:02:49.671Z,69.40
2017-12-15T15:05:15.939Z,70.10
2017-12-15T15:07:42.256Z,69.40
2017-12-15T15:12:37.385Z,68.30
2017-12-15T15:15:03.645Z,67.50
2017-12-15T15:17:30.701Z,71.90
2017-12-15T15:19:57.033Z,71.20
2017-12-15T15:22:23.349Z,70.10
2017-12-15T15:24:50.017Z,70.90
2017-12-15T15:27:16.434Z,70.10
2017-12-15T15:29:43.598Z,69.00
2017-12-15T15:32:09.937Z,69.00
2017-12-15T15:34:36.622Z,68.60
2017-12-15T15:37:02.941Z,71.70
2017-12-15T15:39:29.227Z,70.50
2017-12-15T15:41:56.330Z,68.90
2017-12-15T15:44:22.598Z,68.80
2017-12-15T15:46:48.872Z,67.90
2017-12-15T15:49:15.817Z,67.60
2017-12-15T15:51:42.825Z,67.50
2017-12-15T15:54:09.112Z,67.40
2017-12-15T15:56:35.442Z,68.40
2017-12-15T15:59:01.706Z,69.00
2017-12-15T16:01:28.766Z,69.70
2017-12-15T16:03:55.836Z,69.50
2017-12-15T16:06:22.861Z,68.70
2017-12-15T16:08:49.245Z,68.70
2017-12-15T16:11:15.518Z,68.50
2017-12-15T16:13:41.821Z,68.70
2017-12-15T16:16:08.645Z,68.70
2017-12-15T16:18:34.931Z,68.80
2017-12-15T16:21:01.318Z,68.40
2017-12-15T16:23:28.372Z,70.40
2017-12-15T16:25:55.369Z,69.60
2017-12-15T16:28:22.171Z,69.60
2017-12-15T16:30:49.228Z,69.40
2017-12-15T16:33:15.663Z,69.40
2017-12-15T16:35:42.046Z,68.90
2017-12-15T16:38:08.382Z,68.70
2017-12-15T16:40:34.686Z,69.90
2017-12-15T16:43:00.999Z,68.70
2017-12-15T16:45:27.332Z,70.80
2017-12-15T16:47:53.725Z,70.30
2017-12-15T16:50:20.772Z,69.20
2017-12-15T16:52:47.048Z,69.10
2017-12-15T16:55:13.492Z,68.90
2017-12-15T16:57:40.529Z,69.70
2017-12-15T17:00:06.807Z,69.60
2017-12-15T17:02:33.081Z,68.70
2017-12-15T17:04:59.349Z,68.50
2017-12-15T17:07:25.646Z,68.40
2017-12-15T17:09:52.689Z,69.90
2017-12-15T17:12:26.044Z,69.90
2017-12-15T17:14:52.376Z,69.80
2017-12-15T17:17:19.409Z,72.70
2017-12-15T17:19:45.718Z,72.70
2017-12-15T17:22:12.038Z,72.30
2017-12-15T17:24:39.169Z,71.10
2017-12-15T17:27:05.482Z,71.10
2017-12-15T17:29:33.945Z,71.20
2017-12-15T17:32:00.961Z,71.20
2017-12-15T17:34:27.210Z,71.20
2017-12-15T17:36:57.289Z,71.30
2017-12-15T17:39:23.578Z,71.50
2017-12-15T17:41:49.852Z,71.10
2017-12-15T17:44:16.118Z,71.20
2017-12-15T17:46:49.892Z,71.40
2017-12-15T17:49:16.004Z,71.40
2017-12-15T17:51:42.069Z,70.90
2017-12-15T17:54:08.134Z,70.60
2017-12-15T17:56:34.220Z,70.70
2017-12-15T17:59:01.258Z,69.90
2017-12-15T18:01:28.065Z,70.20
2017-12-15T18:03:54.194Z,70.20
2017-12-15T18:06:22.581Z,71.50
2017-12-15T18:08:48.857Z,71.70
2017-12-15T18:11:15.177Z,71.60
2017-12-15T18:13:41.522Z,71.40
2017-12-15T18:16:07.817Z,72.20
2017-12-15T18:18:34.086Z,71.70
2017-12-15T18:21:00.357Z,72.20
2017-12-15T18:23:26.821Z,72.90
2017-12-15T18:26:00.072Z,73.10
2017-12-15T18:28:26.329Z,71.90
2017-12-15T18:30:52.644Z,73.10
2017-12-15T18:33:18.921Z,74.00
2017-12-15T18:35:45.103Z,73.70
2017-12-15T18:38:11.385Z,75.30
2017-12-15T18:40:37.653Z,75.50
2017-12-15T18:43:03.915Z,73.60
2017-12-15T18:45:33.586Z,72.10
2017-12-15T18:47:59.877Z,72.90
2017-12-15T18:50:26.122Z,72.00
2017-12-15T18:52:52.358Z,72.90
2017-12-15T18:55:18.645Z,72.20
2017-12-15T18:57:45.698Z,71.10
2017-12-15T19:00:12.078Z,71.00
2017-12-15T19:02:43.279Z,71.00
2017-12-15T19:05:10.442Z,69.80
2017-12-15T19:07:36.715Z,69.80
2017-12-15T19:10:02.995Z,70.40
2017-12-15T19:12:30.078Z,72.20
2017-12-15T19:14:56.319Z,72.20
2017-12-15T19:17:29.131Z,72.20
2017-12-15T19:19:56.221Z,72.00
2017-12-15T19:22:22.542Z,71.90
2017-12-15T19:24:49.147Z,71.70
2017-12-15T19:27:16.498Z,71.70
2017-12-15T19:29:42.789Z,71.70
2017-12-15T19:32:09.826Z,71.90
2017-12-15T19:34:42.719Z,71.30
2017-12-15T19:37:08.977Z,72.20
2017-12-15T19:39:35.246Z,73.40
2017-12-15T19:42:01.592Z,73.60
2017-12-15T19:44:27.881Z,76.30
2017-12-15T19:46:54.173Z,77.50
2017-12-15T19:49:25.641Z,78.30
2017-12-15T19:51:51.959Z,78.90
2017-12-15T19:54:18.276Z,77.60
2017-12-15T19:56:44.553Z,75.90
2017-12-15T19:59:10.864Z,75.10
2017-12-15T20:01:37.154Z,74.50
2017-12-15T20:04:03.413Z,73.90
2017-12-15T20:06:30.433Z,72.80
2017-12-15T20:09:00.781Z,72.80
2017-12-15T20:11:27.073Z,72.40
2017-12-15T20:13:54.128Z,72.50
2017-12-15T20:16:20.445Z,72.40
2017-12-15T20:18:46.805Z,71.70
2017-12-15T20:21:13.079Z,73.10
2017-12-15T20:23:39.454Z,72.90
2017-12-15T20:26:05.782Z,72.50
2017-12-15T20:28:38.246Z,73.50
2017-12-15T20:31:04.383Z,74.30
2017-12-15T20:33:30.696Z,75.10
2017-12-15T20:35:57.064Z,75.00
2017-12-15T20:38:23.450Z,74.30
2017-12-15T20:40:49.739Z,73.80
2017-12-15T20:43:16.111Z,73.10
2017-12-15T20:45:47.590Z,72.50
2017-12-15T20:48:13.939Z,73.20
2017-12-15T20:50:40.185Z,72.20
2017-12-15T20:53:06.490Z,72.30
2017-12-15T20:55:33.525Z,71.60
2017-12-15T20:57:59.800Z,71.60
2017-12-15T21:00:26.832Z,73.60
2017-12-15T21:02:55.740Z,73.60
2017-12-15T21:05:22.157Z,73.10
2017-12-15T21:07:48.459Z,72.20
2017-12-15T21:10:14.694Z,72.00
2017-12-15T21:12:40.947Z,71.10
2017-12-15T21:15:07.245Z,73.20
2017-12-15T21:17:33.557Z,75.30
2017-12-15T21:22:31.053Z,76.20
2017-12-15T21:24:57.322Z,78.60
2017-12-15T21:27:23.663Z,78.20
2017-12-15T21:29:50.719Z,78.20
2017-12-15T21:32:17.022Z,77.60
2017-12-15T21:34:43.278Z,75.90
2017-12-15T21:37:09.580Z,74.80
2017-12-15T21:39:37.421Z,75.00
2017-12-15T21:42:03.706Z,74.30
2017-12-15T21:44:29.993Z,74.30
2017-12-15T21:46:56.226Z,73.60
2017-12-15T21:49:22.544Z,73.40
2017-12-15T21:51:49.041Z,73.50
2017-12-15T21:54:15.355Z,73.30
2017-12-15T21:56:41.711Z,73.30
2017-12-15T21:59:12.511Z,73.40
2017-12-15T22:01:38.816Z,73.70
2017-12-15T22:04:06.005Z,75.20
2017-12-15T22:06:32.273Z,75.20
2017-12-15T22:08:58.556Z,74.60
2017-12-15T22:11:24.937Z,74.10
2017-12-15T22:13:51.209Z,73.80
2017-12-15T22:16:18.225Z,74.00
2017-12-15T22:18:44.521Z,74.00
2017-12-15T22:21:10.806Z,74.10
2017-12-15T22:23:37.121Z,74.80
2017-12-15T22:26:03.446Z,74.50
2017-12-15T22:28:29.796Z,74.40
2017-12-15T22:30:56.215Z,74.80
2017-12-15T22:33:22.631Z,75.10
2017-12-15T22:35:48.914Z,75.80
2017-12-15T22:38:15.415Z,75.00
2017-12-15T22:40:41.670Z,75.30
2017-12-15T22:43:07.953Z,75.30
2017-12-15T22:45:34.966Z,75.00
2017-12-15T22:48:01.528Z,75.00
2017-12-15T22:50:27.802Z,75.00
2017-12-15T22:52:54.133Z,76.10
2017-12-15T22:55:20.385Z,76.50
2017-12-15T22:57:47.397Z,77.10
2017-12-15T23:00:13.692Z,77.10
2017-12-15T23:02:39.867Z,77.60
2017-12-15T23:05:06.177Z,77.60
2017-12-15T23:07:32.515Z,77.40
2017-12-15T23:09:59.522Z,79.20
2017-12-15T23:12:26.105Z,78.60
2017-12-15T23:14:52.378Z,78.80
2017-12-15T23:17:18.670Z,79.90
2017-12-15T23:19:46.010Z,80.60
2017-12-15T23:22:12.308Z,80.60
2017-12-15T23:24:38.644Z,79.80
2017-12-15T23:27:04.985Z,79.20
2017-12-15T23:29:31.367Z,78.70
2017-12-15T23:31:57.649Z,79.10
2017-12-15T23:34:24.701Z,77.70
2017-12-15T23:36:51.020Z,77.60
2017-12-15T23:39:17.337Z,77.30
2017-12-15T23:41:43.681Z,77.20
2017-12-15T23:44:09.985Z,76.90
2017-12-15T23:46:36.267Z,76.80
2017-12-15T23:49:02.837Z,76.50
2017-12-15T23:51:29.114Z,75.90
2017-12-15T23:53:55.413Z,75.50
2017-12-15T23:59:24.786Z,75.00
